createdAt,value
2019-02-16T00:02:41.136Z,6.95
2019-02-16T00:05:11.213Z,7.60
2019-02-16T00:07:42.335Z,8.20
2019-02-16T00:10:14.425Z,5.67
2019-02-16T00:12:44.574Z,9.33
2019-02-16T00:15:15.598Z,7.12
2019-02-16T00:17:52.489Z,8.05
2019-02-16T00:20:23.529Z,6.97
2019-02-16T00:22:53.614Z,10.70
2019-02-16T00:25:25.617Z,11.55
2019-02-16T00:27:58.357Z,9.13
2019-02-16T00:30:28.465Z,10.70
2019-02-16T00:33:01.589Z,12.20
2019-02-16T00:35:33.641Z,9.85
2019-02-16T00:38:03.718Z,10.50
2019-02-16T00:40:33.793Z,8.80
2019-02-16T00:43:03.909Z,7.42
2019-02-16T00:45:34.952Z,11.20
2019-02-16T00:48:05.993Z,11.53
2019-02-16T00:50:36.097Z,9.68
2019-02-16T00:53:08.177Z,11.22
2019-02-16T00:55:39.247Z,10.98
2019-02-16T00:58:09.337Z,10.43
2019-02-16T01:00:47.539Z,10.65
2019-02-16T01:03:19.613Z,8.73
2019-02-16T01:05:49.697Z,8.88
2019-02-16T01:08:19.790Z,11.25
2019-02-16T01:10:51.817Z,14.05
2019-02-16T01:13:21.913Z,10.85
2019-02-16T01:15:54.679Z,14.87
2019-02-16T01:18:36.702Z,15.08
2019-02-16T01:21:06.785Z,16.97
2019-02-16T01:23:37.114Z,12.88
2019-02-16T01:26:07.213Z,13.85
2019-02-16T01:28:37.289Z,12.30
2019-02-16T01:31:14.266Z,13.45
2019-02-16T01:33:48.390Z,13.13
2019-02-16T01:36:20.478Z,13.70
2019-02-16T01:38:50.560Z,14.10
2019-02-16T01:41:29.534Z,14.63
2019-02-16T01:43:59.633Z,15.15
2019-02-16T01:46:29.723Z,16.48
2019-02-16T01:48:59.809Z,16.75
2019-02-16T01:51:36.823Z,17.82
2019-02-16T01:54:07.885Z,13.32
2019-02-16T01:56:37.994Z,19.07
2019-02-16T01:59:09.037Z,18.45
2019-02-16T02:01:40.069Z,24.00
2019-02-16T02:04:10.153Z,21.70
2019-02-16T02:06:49.293Z,18.67
2019-02-16T02:09:19.374Z,22.30
2019-02-16T02:11:49.469Z,16.30
2019-02-16T02:14:19.629Z,12.93
2019-02-16T02:16:50.714Z,18.40
2019-02-16T02:19:21.823Z,19.50
2019-02-16T02:21:51.917Z,16.30
2019-02-16T02:24:23.017Z,14.40
2019-02-16T02:26:53.105Z,12.35
2019-02-16T02:29:23.257Z,16.55
2019-02-16T02:31:54.513Z,13.38
2019-02-16T02:34:25.523Z,15.18
2019-02-16T02:36:56.555Z,17.12
2019-02-16T02:39:26.639Z,17.55
2019-02-16T02:41:57.627Z,16.97
2019-02-16T02:44:33.584Z,14.28
2019-02-16T02:47:05.642Z,14.38
2019-02-16T02:49:35.705Z,14.00
2019-02-16T02:52:05.793Z,15.63
2019-02-16T02:54:36.834Z,14.20
2019-02-16T02:57:06.930Z,14.78
2019-02-16T02:59:56.354Z,13.05
2019-02-16T03:02:28.387Z,14.47
2019-02-16T03:05:00.454Z,14.10
2019-02-16T03:07:31.487Z,14.33
2019-02-16T03:10:01.582Z,16.48
2019-02-16T03:12:33.666Z,13.50
2019-02-16T03:15:04.294Z,14.93
2019-02-16T03:17:34.368Z,14.28
2019-02-16T03:20:07.030Z,10.55
2019-02-16T03:23:13.767Z,10.05
2019-02-16T03:26:04.969Z,17.42
2019-02-16T03:28:45.441Z,14.85
2019-02-16T03:31:40.679Z,18.20
2019-02-16T03:34:24.447Z,10.38
2019-02-16T03:37:21.891Z,14.18
2019-02-16T03:39:51.981Z,12.95
2019-02-16T03:42:22.053Z,11.78
2019-02-16T03:45:06.033Z,13.40
2019-02-16T03:47:37.057Z,12.85
2019-02-16T03:50:13.374Z,13.40
2019-02-16T03:52:43.454Z,13.08
2019-02-16T03:55:15.521Z,13.60
2019-02-16T03:57:45.606Z,13.38
2019-02-16T04:00:15.677Z,14.20
2019-02-16T04:02:45.770Z,16.42
2019-02-16T04:05:15.853Z,16.37
2019-02-16T04:07:45.942Z,12.98
2019-02-16T04:10:16.936Z,15.68
2019-02-16T04:12:47.274Z,13.30
2019-02-16T04:15:17.273Z,14.38
2019-02-16T04:17:47.385Z,12.00
2019-02-16T04:20:17.468Z,15.25
2019-02-16T04:22:48.558Z,16.77
2019-02-16T04:25:21.845Z,15.65
2019-02-16T04:27:51.951Z,11.35
2019-02-16T04:30:22.037Z,17.70
2019-02-16T04:32:59.489Z,19.40
2019-02-16T04:35:30.528Z,21.75
2019-02-16T04:38:01.554Z,18.52
2019-02-16T04:40:31.655Z,19.75
2019-02-16T04:43:01.743Z,18.65
2019-02-16T04:45:32.841Z,17.90
2019-02-16T04:48:02.936Z,18.25
2019-02-16T04:50:33.033Z,15.38
2019-02-16T04:53:03.121Z,21.33
2019-02-16T04:55:33.209Z,16.45
2019-02-16T04:58:09.762Z,13.88
2019-02-16T05:00:40.098Z,17.48
2019-02-16T05:03:11.189Z,19.73
2019-02-16T05:05:43.102Z,14.10
2019-02-16T05:08:14.196Z,18.02
2019-02-16T05:10:55.014Z,18.90
2019-02-16T05:13:28.099Z,19.23
2019-02-16T05:15:58.186Z,19.52
2019-02-16T05:18:34.084Z,23.27
2019-02-16T05:21:04.198Z,22.00
2019-02-16T05:23:34.309Z,30.10
2019-02-16T05:26:10.174Z,21.82
2019-02-16T05:28:40.282Z,21.20
2019-02-16T05:31:11.378Z,24.70
2019-02-16T05:33:41.463Z,18.23
2019-02-16T05:36:11.562Z,21.65
2019-02-16T05:38:42.605Z,17.82
2019-02-16T05:41:12.711Z,17.75
2019-02-16T05:43:45.926Z,18.17
2019-02-16T05:46:16.038Z,21.15
2019-02-16T05:48:46.138Z,23.98
2019-02-16T05:51:16.268Z,22.80
2019-02-16T05:54:02.485Z,17.65
2019-02-16T05:56:32.574Z,19.82
2019-02-16T05:59:08.068Z,28.47
2019-02-16T06:01:53.244Z,16.60
2019-02-16T06:04:15.227Z,16.57
2019-02-16T06:06:46.271Z,17.80
2019-02-16T06:09:26.239Z,19.07
2019-02-16T06:11:56.329Z,21.30
2019-02-16T06:14:27.399Z,18.37
2019-02-16T06:17:01.488Z,17.12
2019-02-16T06:19:31.606Z,20.62
2019-02-16T06:22:01.715Z,23.22
2019-02-16T06:24:32.770Z,23.85
2019-02-16T06:27:03.831Z,21.97
2019-02-16T06:29:33.907Z,22.20
2019-02-16T06:32:11.851Z,17.42
2019-02-16T06:34:41.942Z,22.75
2019-02-16T06:37:21.995Z,20.65
2019-02-16T06:39:52.426Z,16.05
2019-02-16T06:42:22.530Z,20.75
2019-02-16T06:44:57.566Z,21.57
2019-02-16T06:47:28.614Z,21.27
2019-02-16T06:49:58.726Z,23.02
2019-02-16T06:52:28.836Z,19.67
2019-02-16T06:55:07.226Z,20.02
2019-02-16T06:57:46.918Z,20.37
2019-02-16T07:00:18.706Z,24.37
2019-02-16T07:02:48.828Z,18.62
2019-02-16T07:05:18.914Z,22.45
2019-02-16T07:07:49.030Z,18.35
2019-02-16T07:10:19.152Z,20.20
2019-02-16T07:12:49.238Z,18.75
2019-02-16T07:15:19.342Z,21.52
2019-02-16T07:17:54.718Z,22.90
2019-02-16T07:20:24.967Z,20.88
2019-02-16T07:22:55.133Z,21.12
2019-02-16T07:25:25.270Z,18.65
2019-02-16T07:27:57.252Z,21.57
2019-02-16T07:30:28.291Z,19.35
2019-02-16T07:32:58.396Z,16.57
2019-02-16T07:35:37.326Z,16.73
2019-02-16T07:38:07.410Z,16.60
2019-02-16T07:40:39.403Z,13.03
2019-02-16T07:43:13.106Z,12.35
2019-02-16T07:45:55.039Z,15.48
2019-02-16T07:48:26.855Z,12.50
2019-02-16T07:50:59.539Z,11.40
2019-02-16T07:53:34.934Z,12.35
2019-02-16T07:56:17.275Z,16.55
2019-02-16T07:58:51.607Z,11.43
2019-02-16T08:01:23.356Z,10.58
2019-02-16T08:04:04.149Z,12.40
2019-02-16T08:06:38.695Z,15.85
2019-02-16T08:09:12.854Z,11.90
2019-02-16T08:11:49.244Z,13.05
2019-02-16T08:14:27.842Z,13.48
2019-02-16T08:16:59.670Z,12.03
2019-02-16T08:19:51.370Z,10.28
2019-02-16T08:22:39.248Z,12.00
2019-02-16T08:25:18.410Z,8.88
2019-02-16T08:27:55.813Z,10.18
2019-02-16T08:30:27.538Z,9.03
2019-02-16T08:33:02.194Z,10.10
2019-02-16T08:35:46.752Z,11.60
2019-02-16T08:38:18.498Z,10.32
2019-02-16T08:41:06.330Z,11.30
2019-02-16T08:43:47.219Z,12.37
2019-02-16T08:46:18.968Z,12.20
2019-02-16T08:48:53.258Z,10.90
2019-02-16T08:51:26.973Z,12.20
2019-02-16T08:54:08.576Z,13.07
2019-02-16T08:56:40.346Z,11.73
2019-02-16T08:59:14.618Z,11.20
2019-02-16T09:01:58.194Z,12.07
2019-02-16T09:04:56.132Z,12.60
2019-02-16T09:10:44.825Z,11.33
2019-02-16T09:13:25.412Z,10.23
2019-02-16T09:16:03.674Z,16.80
2019-02-16T09:18:43.934Z,12.30
2019-02-16T09:21:24.228Z,12.87
2019-02-16T09:23:59.399Z,14.53
2019-02-16T09:26:39.066Z,13.97
2019-02-16T09:29:15.982Z,12.90
2019-02-16T09:31:54.886Z,12.60
2019-02-16T09:34:26.606Z,13.63
2019-02-16T09:37:10.299Z,11.80
2019-02-16T09:39:42.042Z,14.83
2019-02-16T09:42:27.522Z,12.53
2019-02-16T09:45:04.686Z,11.67
2019-02-16T09:47:37.366Z,15.80
2019-02-16T09:50:21.986Z,15.53
2019-02-16T09:53:05.719Z,13.67
2019-02-16T09:55:49.698Z,16.63
2019-02-16T09:58:21.434Z,16.90
2019-02-16T10:01:01.863Z,18.50
2019-02-16T10:03:37.211Z,18.53
2019-02-16T10:06:17.930Z,18.77
2019-02-16T10:08:53.295Z,18.50
2019-02-16T10:11:33.558Z,19.53
2019-02-16T10:14:20.542Z,19.57
2019-02-16T10:17:00.044Z,17.77
2019-02-16T10:19:34.729Z,19.77
2019-02-16T10:22:11.330Z,19.60
2019-02-16T10:24:45.516Z,18.67
2019-02-16T10:27:17.250Z,18.30
2019-02-16T10:29:49.013Z,18.40
2019-02-16T10:32:21.691Z,22.57
2019-02-16T10:35:10.207Z,23.13
2019-02-16T10:37:47.759Z,22.67
2019-02-16T10:40:22.382Z,22.40
2019-02-16T10:42:54.131Z,21.07
2019-02-16T10:45:25.866Z,20.57
2019-02-16T10:47:57.602Z,23.10
2019-02-16T10:50:41.142Z,19.87
2019-02-16T10:53:18.586Z,20.23
2019-02-16T10:55:50.404Z,21.17
2019-02-16T10:58:22.151Z,21.40
2019-02-16T11:01:04.619Z,20.00
2019-02-16T11:03:36.363Z,20.10
2019-02-16T11:06:16.582Z,19.27
2019-02-16T11:08:48.334Z,24.33
2019-02-16T11:11:22.719Z,21.70
2019-02-16T11:13:57.255Z,18.20
2019-02-16T11:16:35.185Z,18.60
2019-02-16T11:19:12.691Z,19.03
2019-02-16T11:21:45.454Z,20.33
2019-02-16T11:24:26.431Z,17.43
2019-02-16T11:26:59.231Z,19.90
2019-02-16T11:29:33.729Z,16.67
2019-02-16T11:32:26.323Z,18.90
2019-02-16T11:35:00.635Z,16.03
2019-02-16T11:37:32.368Z,16.13
2019-02-16T11:40:13.027Z,12.90
2019-02-16T11:42:45.740Z,13.40
2019-02-16T11:45:17.471Z,12.50
2019-02-16T11:48:01.135Z,11.23
2019-02-16T11:50:35.339Z,10.80
2019-02-16T11:53:16.239Z,11.90
2019-02-16T11:55:50.564Z,11.00
2019-02-16T11:58:23.295Z,10.87
2019-02-16T12:01:09.757Z,10.53
2019-02-16T12:03:47.287Z,12.40
2019-02-16T12:06:19.592Z,11.70
2019-02-16T12:08:56.844Z,10.67
2019-02-16T12:11:34.351Z,11.30
2019-02-16T12:14:13.935Z,11.83
2019-02-16T12:16:52.207Z,8.93
2019-02-16T12:19:26.630Z,11.17
2019-02-16T12:21:58.362Z,10.73
2019-02-16T12:24:30.119Z,9.63
2019-02-16T12:27:09.432Z,11.60
2019-02-16T12:29:47.032Z,10.87
2019-02-16T12:32:18.756Z,10.53
2019-02-16T12:35:02.145Z,12.43
2019-02-16T12:37:33.910Z,11.10
2019-02-16T12:40:07.616Z,11.67
2019-02-16T12:42:51.352Z,11.50
2019-02-16T12:45:40.295Z,13.57
2019-02-16T12:48:18.833Z,11.80
2019-02-16T12:50:56.919Z,15.43
2019-02-16T12:53:28.672Z,12.63
2019-02-16T12:56:17.084Z,11.80
2019-02-16T12:59:05.135Z,17.93
2019-02-16T13:01:36.876Z,14.73
2019-02-16T13:04:12.239Z,13.97
2019-02-16T13:06:49.493Z,14.90
2019-02-16T13:09:23.929Z,19.17
2019-02-16T13:12:01.360Z,14.00
2019-02-16T13:14:45.684Z,16.00
2019-02-16T13:17:35.589Z,15.27
2019-02-16T13:20:10.334Z,13.17
2019-02-16T13:22:44.732Z,15.37
2019-02-16T13:25:24.509Z,16.17
2019-02-16T13:27:51.904Z,14.90
2019-02-16T13:30:28.207Z,19.53
2019-02-16T13:33:08.714Z,16.40
2019-02-16T13:35:49.623Z,14.60
2019-02-16T13:38:38.439Z,15.90
2019-02-16T13:41:12.191Z,19.87
2019-02-16T13:43:50.287Z,15.43
2019-02-16T13:46:34.875Z,16.17
2019-02-16T13:49:09.589Z,15.73
2019-02-16T13:51:41.328Z,17.10
2019-02-16T13:54:13.061Z,19.87
2019-02-16T13:56:57.922Z,15.83
2019-02-16T13:59:35.800Z,18.80
2019-02-16T14:02:08.581Z,16.60
2019-02-16T14:04:43.081Z,14.90
2019-02-16T14:07:22.440Z,16.77
2019-02-16T14:10:03.101Z,17.93
2019-02-16T14:12:46.764Z,19.00
2019-02-16T14:15:19.364Z,16.13
2019-02-16T14:17:51.659Z,20.33
2019-02-16T14:20:23.008Z,19.20
2019-02-16T14:22:56.755Z,16.10
2019-02-16T14:25:28.499Z,17.80
2019-02-16T14:27:58.755Z,17.80
2019-02-16T14:30:29.806Z,20.20
2019-02-16T14:33:05.657Z,16.40
2019-02-16T14:35:38.758Z,15.07
2019-02-16T14:38:20.288Z,19.47
2019-02-16T14:40:50.373Z,19.30
2019-02-16T14:43:22.433Z,19.37
2019-02-16T14:45:53.119Z,21.53
2019-02-16T14:48:23.214Z,19.20
2019-02-16T14:50:53.315Z,18.40
2019-02-16T14:53:23.475Z,17.80
2019-02-16T14:55:56.181Z,18.27
2019-02-16T14:58:30.308Z,18.50
2019-02-16T15:01:05.420Z,17.73
2019-02-16T15:03:36.467Z,23.50
2019-02-16T15:06:08.527Z,20.43
2019-02-16T15:08:39.575Z,19.33
2019-02-16T15:11:10.059Z,19.70
2019-02-16T15:13:40.177Z,17.93
2019-02-16T15:16:10.295Z,17.10
2019-02-16T15:18:40.413Z,16.60
2019-02-16T15:21:10.583Z,23.07
2019-02-16T15:23:40.621Z,19.10
2019-02-16T15:26:10.760Z,22.27
2019-02-16T15:28:40.864Z,19.97
2019-02-16T15:31:11.004Z,21.00
2019-02-16T15:33:42.111Z,18.83
2019-02-16T15:36:13.131Z,29.50
2019-02-16T15:38:43.243Z,24.73
2019-02-16T15:41:13.336Z,27.60
2019-02-16T15:43:43.448Z,22.33
2019-02-16T15:46:13.635Z,22.70
2019-02-16T15:48:43.751Z,20.90
2019-02-16T15:51:13.847Z,21.53
2019-02-16T15:53:50.643Z,24.90
2019-02-16T15:56:21.842Z,28.93
2019-02-16T15:58:52.964Z,24.37
2019-02-16T16:01:24.010Z,27.23
2019-02-16T16:03:55.099Z,26.00
2019-02-16T16:06:25.214Z,24.20
2019-02-16T16:09:21.788Z,30.47
2019-02-16T16:12:08.231Z,26.23
2019-02-16T16:14:52.099Z,25.20
2019-02-16T16:17:23.833Z,24.63
2019-02-16T16:19:57.587Z,28.47
2019-02-16T16:22:32.167Z,30.57
2019-02-16T16:25:07.144Z,28.40
2019-02-16T16:27:38.889Z,29.83
2019-02-16T16:33:29.924Z,28.50
2019-02-16T16:36:04.136Z,27.50
2019-02-16T16:38:37.880Z,27.50
2019-02-16T16:41:09.612Z,29.60
2019-02-16T16:43:42.912Z,30.32
2019-02-16T16:46:24.004Z,33.88
2019-02-16T16:49:03.512Z,26.35
2019-02-16T16:51:59.277Z,29.72
2019-02-16T16:54:40.700Z,30.82
2019-02-16T16:57:21.096Z,32.35
2019-02-16T17:00:00.370Z,29.05
2019-02-16T17:02:35.744Z,26.50
2019-02-16T17:05:27.203Z,33.88
2019-02-16T17:08:01.956Z,39.13
2019-02-16T17:10:36.372Z,34.27
2019-02-16T17:13:17.052Z,35.30
2019-02-16T17:15:54.440Z,34.98
2019-02-16T17:18:38.108Z,34.98
2019-02-16T17:21:24.840Z,40.60
2019-02-16T17:23:59.496Z,36.20
2019-02-16T17:26:38.002Z,40.45
2019-02-16T17:29:23.450Z,35.20
2019-02-16T17:32:06.948Z,34.75
2019-02-16T17:34:42.252Z,36.17
2019-02-16T17:37:29.824Z,36.10
2019-02-16T17:40:02.440Z,51.30
2019-02-16T17:42:52.436Z,47.83
2019-02-16T17:45:35.161Z,43.45
2019-02-16T17:48:12.602Z,36.93
2019-02-16T17:50:45.468Z,41.30
2019-02-16T17:53:26.456Z,42.50
2019-02-16T17:55:58.183Z,33.67
2019-02-16T17:58:46.860Z,36.95
2019-02-16T18:01:34.689Z,33.33
2019-02-16T18:04:13.796Z,30.48
2019-02-16T18:06:51.013Z,32.60
2019-02-16T18:09:38.538Z,36.55
2019-02-16T18:12:26.352Z,33.48
2019-02-16T18:14:58.090Z,35.45
2019-02-16T18:17:41.532Z,32.70
2019-02-16T18:20:15.964Z,34.23
2019-02-16T18:22:54.498Z,34.67
2019-02-16T18:25:45.087Z,33.70
2019-02-16T18:28:27.398Z,29.95
2019-02-16T18:31:05.092Z,34.08
2019-02-16T18:33:40.438Z,38.88
2019-02-16T18:36:12.331Z,38.28
2019-02-16T18:38:45.969Z,41.75
2019-02-16T18:41:33.644Z,36.98
2019-02-16T18:44:17.609Z,36.05
2019-02-16T18:46:55.265Z,35.78
2019-02-16T18:49:41.972Z,37.10
2019-02-16T18:52:33.202Z,29.80
2019-02-16T18:55:13.967Z,33.00
2019-02-16T18:57:45.780Z,36.58
2019-02-16T19:00:17.486Z,33.45
2019-02-16T19:02:58.293Z,33.30
2019-02-16T19:05:41.937Z,35.03
2019-02-16T19:08:22.587Z,36.48
2019-02-16T19:11:07.539Z,35.90
2019-02-16T19:13:56.408Z,36.83
2019-02-16T19:16:43.221Z,35.80
2019-02-16T19:19:19.665Z,32.55
2019-02-16T19:21:56.153Z,37.55
2019-02-16T19:24:30.533Z,35.35
2019-02-16T19:27:16.275Z,31.27
2019-02-16T19:29:56.091Z,32.90
2019-02-16T19:32:36.797Z,37.33
2019-02-16T19:35:23.261Z,34.48
2019-02-16T19:38:10.081Z,45.50
2019-02-16T19:40:43.717Z,35.03
2019-02-16T19:43:21.419Z,34.83
2019-02-16T19:45:53.145Z,39.55
2019-02-16T19:48:27.969Z,36.98
2019-02-16T19:51:02.197Z,37.23
2019-02-16T19:53:36.587Z,35.70
2019-02-16T19:56:12.605Z,33.83
2019-02-16T19:58:59.421Z,37.03
2019-02-16T20:01:43.201Z,41.63
2019-02-16T20:04:14.925Z,43.73
2019-02-16T20:06:56.061Z,37.48
2019-02-16T20:09:29.681Z,38.88
2019-02-16T20:12:02.349Z,37.58
2019-02-16T20:14:34.973Z,38.75
2019-02-16T20:17:10.518Z,39.18
2019-02-16T20:19:48.127Z,36.23
2019-02-16T20:22:20.853Z,37.75
2019-02-16T20:25:07.653Z,38.98
2019-02-16T20:27:42.293Z,40.00
2019-02-16T20:30:14.169Z,43.83
2019-02-16T20:32:54.474Z,38.60
2019-02-16T20:35:26.197Z,43.30
2019-02-16T20:38:00.902Z,40.00
2019-02-16T20:40:32.638Z,38.38
2019-02-16T20:43:09.003Z,44.18
2019-02-16T20:45:56.033Z,43.55
2019-02-16T20:48:27.781Z,39.98
2019-02-16T20:51:11.341Z,43.80
2019-02-16T20:53:54.940Z,37.55
2019-02-16T20:56:41.751Z,40.55
2019-02-16T20:59:14.453Z,37.33
2019-02-16T21:01:55.169Z,46.73
2019-02-16T21:04:35.782Z,51.48
2019-02-16T21:07:23.196Z,45.73
2019-02-16T21:09:57.723Z,41.33
2019-02-16T21:12:34.471Z,39.00
2019-02-16T21:15:23.349Z,38.35
2019-02-16T21:18:04.675Z,42.00
2019-02-16T21:20:58.393Z,41.88
2019-02-16T21:23:34.133Z,44.20
2019-02-16T21:26:23.197Z,43.70
2019-02-16T21:29:21.922Z,37.35
2019-02-16T21:32:11.845Z,37.33
2019-02-16T21:35:01.729Z,43.23
2019-02-16T21:37:36.190Z,47.62
2019-02-16T21:40:08.969Z,45.25
2019-02-16T21:42:43.613Z,43.60
2019-02-16T21:45:35.301Z,49.23
2019-02-16T21:48:21.819Z,51.23
2019-02-16T21:51:11.301Z,46.88
2019-02-16T21:53:46.025Z,45.58
2019-02-16T21:56:24.412Z,44.35
2019-02-16T21:59:00.521Z,57.03
2019-02-16T22:01:41.005Z,44.33
2019-02-16T22:04:12.753Z,44.65
2019-02-16T22:06:49.971Z,47.88
2019-02-16T22:09:24.669Z,50.15
2019-02-16T22:12:02.630Z,51.15
2019-02-16T22:14:38.600Z,45.50
2019-02-16T22:17:08.702Z,56.13
2019-02-16T22:19:39.769Z,46.10
2019-02-16T22:22:11.885Z,46.10
2019-02-16T22:24:42.645Z,52.17
2019-02-16T22:27:19.882Z,42.13
2019-02-16T22:29:49.988Z,48.10
2019-02-16T22:32:20.105Z,45.80
2019-02-16T22:34:51.733Z,51.80
2019-02-16T22:37:21.852Z,48.33
2019-02-16T22:39:51.961Z,48.70
2019-02-16T22:42:24.009Z,46.53
2019-02-16T22:44:54.097Z,47.88
2019-02-16T22:47:27.217Z,47.67
2019-02-16T22:49:59.216Z,45.67
2019-02-16T22:52:29.452Z,44.20
2019-02-16T22:55:09.389Z,45.08
2019-02-16T22:57:39.485Z,46.90
2019-02-16T23:00:15.853Z,47.35
2019-02-16T23:02:45.965Z,46.75
2019-02-16T23:05:16.933Z,46.63
2019-02-16T23:07:47.033Z,50.05
2019-02-16T23:10:17.139Z,49.25
2019-02-16T23:12:48.109Z,43.60
2019-02-16T23:15:18.213Z,53.17
2019-02-16T23:17:48.331Z,52.73
2019-02-16T23:20:18.494Z,46.50
2019-02-16T23:22:48.761Z,56.33
2019-02-16T23:25:18.929Z,50.23
2019-02-16T23:27:49.025Z,50.48
2019-02-16T23:30:20.024Z,49.10
2019-02-16T23:32:51.017Z,48.83
2019-02-16T23:35:22.465Z,49.80
2019-02-16T23:37:52.549Z,45.50
2019-02-16T23:40:22.653Z,55.88
2019-02-16T23:42:54.777Z,52.75
2019-02-16T23:45:26.317Z,46.68
2019-02-16T23:48:05.345Z,48.87
2019-02-16T23:50:41.719Z,55.40
2019-02-16T23:53:12.801Z,45.25
2019-02-16T23:55:54.893Z,53.17
2019-02-16T23:58:25.077Z,44.93
